Thunder radar more information blitzortung!


Radar de pluja more information rain snow radar


Visita la nostra xarxa de llocs de meteo:

Template documentation
and downloads

And another site



No particular awareness of the weather is required.    There are no Weather-warnings

Pagina Historial Weather Underground text

Diari Resum February 17, 2016 Unitats:  Mètric    Imperial   Tant
« Previous Dia
SegĂźent Dia »
Diari Setmana Mensual Anual Personalitzada
  Maxima: Minima: Media:
Temperatura: -17.8 °C -14.5 °C -12.5 °C
Punt de rosada: -17.8 °C -22.4 °C -21.2 °C
Humitat: Humidity % 30 % 32 %
Wind Speed: 0 km/h 3.1 km/h 8.9 km/h
RĂ fegues de vent: 0 km/h - -
Vent:- - WSW
Pression baro: 0 hPa 34428.8 hPa -
Precipitacions: 0 mm    
Historical Graphs
 
 
Dades de taula per February 17, 2016
Temps Temperatura Punt de rosada Pression baro Vent Wind Speed RĂ fegues de vent Humitat Rainfall Rate (Hourly)
-17.8 °C -17.8 °C 0 hPa Calm     Humidity % 0 mm
10:37 -14.4 °C -21.1 °C 34635.4 hPa NNW 6.8 km/h 6.8 km/h 42 % 0 mm
10:42 -14.5 °C -21.3 °C 34635.4 hPa NNW 11.9 km/h 11.9 km/h 41 % 0 mm
10:47 -14.3 °C -20.9 °C 34635.4 hPa ENE 8 km/h 8 km/h 42 % 0 mm
10:52 -14.2 °C -21 °C 34635.4 hPa WSW 15 km/h 15 km/h 41 % 0 mm
10:57 -14.2 °C -21.2 °C 34635.4 hPa WNW 15 km/h 15 km/h 40 % 0 mm
11:02 -14.1 °C -21.2 °C 34601.5 hPa West 11.9 km/h 11.9 km/h 40 % 0 mm
11:07 -14 °C -21.1 °C 34601.5 hPa WSW 11.9 km/h 11.9 km/h 40 % 0 mm
11:12 -13.8 °C -20.9 °C 34601.5 hPa WSW 9 km/h 9 km/h 40 % 0 mm
11:17 -13.7 °C -20.8 °C 34601.5 hPa SW 6 km/h 6 km/h 40 % 0 mm
11:22 -13.5 °C -20.6 °C 34601.5 hPa West 9 km/h 9 km/h 40 % 0 mm
11:27 -13.4 °C -20.5 °C 34601.5 hPa ESE 9.8 km/h 9.8 km/h 40 % 0 mm
11:37 -13.3 °C -20.6 °C 34601.5 hPa East 11.9 km/h 11.9 km/h 39 % 0 mm
11:42 -13.3 °C -20.8 °C 34601.5 hPa NNW 20.9 km/h 20.9 km/h 38 % 0 mm
11:47 -13.2 °C -20.7 °C 34601.5 hPa NNW 6 km/h 6 km/h 38 % 0 mm
11:52 -13.2 °C -20.7 °C 34601.5 hPa NE 11.9 km/h 11.9 km/h 38 % 0 mm
11:57 -12.9 °C -20.4 °C 34601.5 hPa NNE 6.3 km/h 6.3 km/h 38 % 0 mm
12:02 -12.9 °C -20.4 °C 34601.5 hPa NE 11.9 km/h 11.9 km/h 38 % 0 mm
12:07 -12.8 °C -20.4 °C 34601.5 hPa ENE 17.9 km/h 17.9 km/h 38 % 0 mm
12:12 -12.8 °C -20.5 °C 34601.5 hPa SW 6 km/h 6 km/h 37 % 0 mm
12:17 -12.6 °C -20.4 °C 34601.5 hPa SSE 9 km/h 9 km/h 37 % 0 mm
12:22 -12.6 °C -20.3 °C 34601.5 hPa SSW 5.1 km/h 5.1 km/h 37 % 0 mm
12:27 -12.6 °C -20.5 °C 34601.5 hPa North 6 km/h 6 km/h 36 % 0 mm
12:32 -12.6 °C -20.6 °C 34567.7 hPa WNW 9 km/h 9 km/h 36 % 0 mm
12:37 -12.5 °C -20.4 °C 34567.7 hPa SW 5.1 km/h 5.1 km/h 36 % 0 mm
12:42 -12.4 °C -20.6 °C 34567.7 hPa WSW 15 km/h 15 km/h 35 % 0 mm
12:47 -12.3 °C -20.5 °C 34533.8 hPa WSW 9.3 km/h 9.3 km/h 35 % 0 mm
12:52 -12.3 °C -20.5 °C 34533.8 hPa NW 9 km/h 9 km/h 35 % 0 mm
12:57 -12.2 °C -20.4 °C 34533.8 hPa NNE 7.6 km/h 7.6 km/h 35 % 0 mm
13:02 -12.2 °C -20.4 °C 34533.8 hPa WNW 7.6 km/h 7.6 km/h 35 % 0 mm
13:07 -12 °C -20.2 °C 34533.8 hPa NNE 9 km/h 9 km/h 35 % 0 mm
13:12 -11.9 °C -20.2 °C 34533.8 hPa SW 9 km/h 9 km/h 35 % 0 mm
13:17 -11.9 °C -20.3 °C 34533.8 hPa ESE 9 km/h 9 km/h 34 % 0 mm
13:22 -11.8 °C -20.2 °C 34533.8 hPa NNE 6 km/h 6 km/h 34 % 0 mm
13:27 -11.8 °C -20.2 °C 34533.8 hPa SSW 11.9 km/h 11.9 km/h 34 % 0 mm
13:32 -11.7 °C -20.4 °C 34533.8 hPa SW 15 km/h 15 km/h 33 % 0 mm
13:37 -11.8 °C -20.4 °C 34533.8 hPa SW 6 km/h 6 km/h 33 % 0 mm
13:42 -11.6 °C -20.3 °C 34533.8 hPa WSW 11.9 km/h 11.9 km/h 33 % 0 mm
13:47 -11.6 °C -20.3 °C 34533.8 hPa WSW 14 km/h 14 km/h 33 % 0 mm
13:52 -11.4 °C -20.2 °C 34533.8 hPa SW 17.9 km/h 17.9 km/h 33 % 0 mm
13:57 -11.3 °C -20.1 °C 34533.8 hPa NNE 6 km/h 6 km/h 33 % 0 mm
14:02 -11.4 °C -20.1 °C 34533.8 hPa WSW 15 km/h 15 km/h 33 % 0 mm
14:12 -11.5 °C -20.2 °C 34533.8 hPa WSW 15 km/h 15 km/h 33 % 0 mm
14:17 -11.6 °C -20.5 °C 34496.6 hPa SSW 15 km/h 15 km/h 32 % 0 mm
14:22 -11.3 °C -20.1 °C 34496.6 hPa West 11.9 km/h 11.9 km/h 33 % 0 mm
14:27 -11.3 °C -20.1 °C 34496.6 hPa SW 9.3 km/h 9.3 km/h 33 % 0 mm
14:32 -11.2 °C -20 °C 34496.6 hPa WNW 9 km/h 9 km/h 33 % 0 mm
14:37 -11.2 °C -19.9 °C 34496.6 hPa NNW 15 km/h 15 km/h 33 % 0 mm
14:42 -11.1 °C -19.9 °C 34496.6 hPa South 6 km/h 6 km/h 33 % 0 mm
14:47 -11.1 °C -20.1 °C 34496.6 hPa ENE 9.3 km/h 9.3 km/h 32 % 0 mm
14:52 -11.2 °C -20.2 °C 34496.6 hPa WSW 10.3 km/h 10.3 km/h 32 % 0 mm
14:57 -11.1 °C -20.1 °C 34496.6 hPa WSW 9 km/h 9 km/h 32 % 0 mm
15:02 -11.1 °C -20.1 °C 34462.7 hPa West 11.9 km/h 11.9 km/h 32 % 0 mm
15:07 -11.3 °C -20.3 °C 34462.7 hPa SE 11.9 km/h 11.9 km/h 32 % 0 mm
15:12 -11.3 °C -20.3 °C 34462.7 hPa West 17.9 km/h 17.9 km/h 32 % 0 mm
15:17 -11.3 °C -20.3 °C 34462.7 hPa NE 6 km/h 6 km/h 32 % 0 mm
15:27 -11.2 °C -20.2 °C 34462.7 hPa NE 9 km/h 9.3 km/h 32 % 0 mm
15:32 -11.2 °C -20.2 °C 34462.7 hPa West 9 km/h 9 km/h 32 % 0 mm
15:37 -11 °C -20.2 °C 34462.7 hPa South 9 km/h 9 km/h 31 % 0 mm
15:42 -10.9 °C -19.9 °C 34462.7 hPa WSW 9 km/h 9 km/h 32 % 0 mm
15:47 -10.7 °C -19.8 °C 34462.7 hPa WNW 11.9 km/h 11.9 km/h 32 % 0 mm
15:57 -10.8 °C -20.1 °C 34462.7 hPa NW 11.9 km/h 11.9 km/h 31 % 0 mm
16:02 -10.7 °C -20 °C 34462.7 hPa NNW 11.9 km/h 11.9 km/h 31 % 0 mm
16:07 -10.8 °C -20.1 °C 34462.7 hPa ENE 6 km/h 6 km/h 31 % 0 mm
16:12 -10.8 °C -20.1 °C 34462.7 hPa West 6.8 km/h 6.8 km/h 31 % 0 mm
16:17 -10.7 °C -20 °C 34462.7 hPa SSW 14 km/h 14 km/h 31 % 0 mm
16:22 -10.8 °C -20.1 °C 34462.7 hPa West 19.2 km/h 19.2 km/h 31 % 0 mm
16:27 -10.9 °C -20.2 °C 34462.7 hPa West 11.9 km/h 11.9 km/h 31 % 0 mm
16:32 -10.9 °C -20.2 °C 34462.7 hPa WSW 9 km/h 9 km/h 31 % 0 mm
16:42 -11.2 °C -20.4 °C 34462.7 hPa SSW 17.9 km/h 17.9 km/h 31 % 0 mm
16:52 -11.2 °C -20.4 °C 34462.7 hPa SW 8.5 km/h 8.5 km/h 31 % 0 mm
16:57 -11.1 °C -20.3 °C 34462.7 hPa SW 14 km/h 14 km/h 31 % 0 mm
17:02 -11.2 °C -20.4 °C 34462.7 hPa SW 6.8 km/h 6.8 km/h 31 % 0 mm
17:07 -11.1 °C -20.3 °C 34462.7 hPa WSW 11.9 km/h 11.9 km/h 31 % 0 mm
17:12 -11.2 °C -20.4 °C 34462.7 hPa SW 12.7 km/h 12.7 km/h 31 % 0 mm
17:17 -11.3 °C -20.5 °C 34428.8 hPa WSW 20.9 km/h 20.9 km/h 31 % 0 mm
17:22 -11.6 °C -20.8 °C 34428.8 hPa WSW 20.9 km/h 20.9 km/h 31 % 0 mm
17:27 -11.6 °C -20.8 °C 34428.8 hPa WSW 16.6 km/h 16.6 km/h 31 % 0 mm
17:32 -11.6 °C -20.8 °C 34428.8 hPa SW 16.6 km/h 16.6 km/h 31 % 0 mm
17:42 -11.8 °C -20.9 °C 34428.8 hPa SW 9 km/h 9 km/h 31 % 0 mm
17:47 -11.8 °C -21 °C 34462.7 hPa WSW 11.9 km/h 11.9 km/h 31 % 0 mm
17:52 -12 °C -21.3 °C 34462.7 hPa West 11.9 km/h 11.9 km/h 30 % 0 mm
17:57 -12.1 °C -21.4 °C 34462.7 hPa NNW 11.9 km/h 11.9 km/h 30 % 0 mm
18:02 -12.2 °C -21.5 °C 34462.7 hPa West 9 km/h 9 km/h 30 % 0 mm
18:07 -12.3 °C -21.7 °C 34462.7 hPa SW 9 km/h 9 km/h 30 % 0 mm
18:12 -12.4 °C -21.7 °C 34462.7 hPa SW 6.3 km/h 6.3 km/h 30 % 0 mm
18:22 -12.8 °C -22.1 °C 34462.7 hPa WSW 9 km/h 9 km/h 30 % 0 mm
18:27 -12.9 °C -22.1 °C 34462.7 hPa WSW 6 km/h 6 km/h 30 % 0 mm
18:33 -13 °C -22.3 °C 34462.7 hPa WSW 3.1 km/h 3.1 km/h 30 % 0 mm
18:42 -13.2 °C -22.4 °C 34462.7 hPa WNW 6 km/h 6.3 km/h 30 % 0 mm
18:52 -13.2 °C -22.4 °C 34462.7 hPa WNW 6 km/h 6.3 km/h 30 % 0 mm
18:58 -13.2 °C -22.4 °C 34462.7 hPa WNW 6 km/h 6.3 km/h 30 % 0 mm
19:03 -13.2 °C -22.4 °C 34462.7 hPa WNW 6 km/h 6.3 km/h 30 % 0 mm
19:08 -13.2 °C -22.4 °C 34462.7 hPa WNW 6 km/h 6.3 km/h 30 % 0 mm
19:13 -13.2 °C -22.4 °C 34462.7 hPa WNW 6 km/h 6.3 km/h 30 % 0 mm
19:18 -13.2 °C -22.4 °C 34462.7 hPa WNW 6 km/h 6.3 km/h 30 % 0 mm
19:23 -13.2 °C -22.4 °C 34462.7 hPa WNW 6 km/h 6.3 km/h 30 % 0 mm
19:28 -13.2 °C -22.4 °C 34462.7 hPa WNW 6 km/h 6.3 km/h 30 % 0 mm
19:33 -13.2 °C -22.4 °C 34462.7 hPa WNW 6 km/h 6.3 km/h 30 % 0 mm
19:38 -13.2 °C -22.4 °C 34462.7 hPa WNW 6 km/h 6.3 km/h 30 % 0 mm
19:43 -13.2 °C -22.4 °C 34462.7 hPa WNW 6 km/h 6.3 km/h 30 % 0 mm
19:48 -13.2 °C -22.4 °C 34462.7 hPa WNW 6 km/h 6.3 km/h 30 % 0 mm
19:53 -13.2 °C -22.4 °C 34462.7 hPa WNW 6 km/h 6.3 km/h 30 % 0 mm
19:58 -13.2 °C -22.4 °C 34462.7 hPa WNW 6 km/h 6.3 km/h 30 % 0 mm
20:03 -13.2 °C -22.4 °C 34462.7 hPa WNW 6 km/h 6.3 km/h 30 % 0 mm
20:13 -13.2 °C -22.4 °C 34462.7 hPa WNW 6 km/h 6.3 km/h 30 % 0 mm
20:18 -13.2 °C -22.4 °C 34462.7 hPa WNW 6 km/h 6.3 km/h 30 % 0 mm
20:23 -13.2 °C -22.4 °C 34462.7 hPa WNW 6 km/h 6.3 km/h 30 % 0 mm
20:28 -13.2 °C -22.4 °C 34462.7 hPa WNW 6 km/h 6.3 km/h 30 % 0 mm
20:33 -13.2 °C -22.4 °C 34462.7 hPa WNW 6 km/h 6.3 km/h 30 % 0 mm
20:38 -13.2 °C -22.4 °C 34462.7 hPa WNW 6 km/h 6.3 km/h 30 % 0 mm
20:43 -13.2 °C -22.4 °C 34462.7 hPa WNW 6 km/h 6.3 km/h 30 % 0 mm
20:48 -13.2 °C -22.4 °C 34462.7 hPa WNW 6 km/h 6.3 km/h 30 % 0 mm
20:53 -13.2 °C -22.4 °C 34462.7 hPa WNW 6 km/h 6.3 km/h 30 % 0 mm
20:58 -13.2 °C -22.4 °C 34462.7 hPa WNW 6 km/h 6.3 km/h 30 % 0 mm
21:03 -13.2 °C -22.4 °C 34462.7 hPa WNW 6 km/h 6.3 km/h 30 % 0 mm
21:08 -13.2 °C -22.4 °C 34462.7 hPa WNW 6 km/h 6.3 km/h 30 % 0 mm
21:13 -13.2 °C -22.4 °C 34462.7 hPa WNW 6 km/h 6.3 km/h 30 % 0 mm
21:18 -13.2 °C -22.4 °C 34462.7 hPa WNW 6 km/h 6.3 km/h 30 % 0 mm
21:23 -13.2 °C -22.4 °C 34462.7 hPa WNW 6 km/h 6.3 km/h 30 % 0 mm
21:28 -13.2 °C -22.4 °C 34462.7 hPa WNW 6 km/h 6.3 km/h 30 % 0 mm
21:33 -13.2 °C -22.4 °C 34462.7 hPa WNW 6 km/h 6.3 km/h 30 % 0 mm
21:38 -13.2 °C -22.4 °C 34462.7 hPa WNW 6 km/h 6.3 km/h 30 % 0 mm
21:43 -13.2 °C -22.4 °C 34462.7 hPa WNW 6 km/h 6.3 km/h 30 % 0 mm
21:48 -13.2 °C -22.4 °C 34462.7 hPa WNW 6 km/h 6.3 km/h 30 % 0 mm
21:53 -13.2 °C -22.4 °C 34462.7 hPa WNW 6 km/h 6.3 km/h 30 % 0 mm
21:58 -13.2 °C -22.4 °C 34462.7 hPa WNW 6 km/h 6.3 km/h 30 % 0 mm
22:03 -13.2 °C -22.4 °C 34462.7 hPa WNW 6 km/h 6.3 km/h 30 % 0 mm
22:08 -13.2 °C -22.4 °C 34462.7 hPa WNW 6 km/h 6.3 km/h 30 % 0 mm
22:13 -13.2 °C -22.4 °C 34462.7 hPa WNW 6 km/h 6.3 km/h 30 % 0 mm
22:18 -13.2 °C -22.4 °C 34462.7 hPa WNW 6 km/h 6.3 km/h 30 % 0 mm
22:23 -13.2 °C -22.4 °C 34462.7 hPa WNW 6 km/h 6.3 km/h 30 % 0 mm
22:28 -13.2 °C -22.4 °C 34462.7 hPa WNW 6 km/h 6.3 km/h 30 % 0 mm
22:33 -13.2 °C -22.4 °C 34462.7 hPa WNW 6 km/h 6.3 km/h 30 % 0 mm
22:38 -13.2 °C -22.4 °C 34462.7 hPa WNW 6 km/h 6.3 km/h 30 % 0 mm
22:43 -13.2 °C -22.4 °C 34462.7 hPa WNW 6 km/h 6.3 km/h 30 % 0 mm
22:48 -13.2 °C -22.4 °C 34462.7 hPa WNW 6 km/h 6.3 km/h 30 % 0 mm
22:53 -13.2 °C -22.4 °C 34462.7 hPa WNW 6 km/h 6.3 km/h 30 % 0 mm
22:58 -13.2 °C -22.4 °C 34462.7 hPa WNW 6 km/h 6.3 km/h 30 % 0 mm
23:03 -13.2 °C -22.4 °C 34462.7 hPa WNW 6 km/h 6.3 km/h 30 % 0 mm
23:13 -13.2 °C -22.4 °C 34462.7 hPa WNW 6 km/h 6.3 km/h 30 % 0 mm
23:18 -13.2 °C -22.4 °C 34462.7 hPa WNW 6 km/h 6.3 km/h 30 % 0 mm
23:23 -13.2 °C -22.4 °C 34462.7 hPa WNW 6 km/h 6.3 km/h 30 % 0 mm
23:28 -13.2 °C -22.4 °C 34462.7 hPa WNW 6 km/h 6.3 km/h 30 % 0 mm
23:38 -13.2 °C -22.4 °C 34462.7 hPa WNW 6 km/h 6.3 km/h 30 % 0 mm
23:43 -13.2 °C -22.4 °C 34462.7 hPa WNW 6 km/h 6.3 km/h 30 % 0 mm
23:48 -13.2 °C -22.4 °C 34462.7 hPa WNW 6 km/h 6.3 km/h 30 % 0 mm
Meteo Sesrovires
Elogis d' Weather Underground - 3.25 mb

Guio original per  Jim McMurry - jmcmurry@mwt.net Adaptat per a la plantilla per  Wim van der Kuil - Leuven-Template.eu

Trobareu la nostra informacio del temps tambe a:

Weather Underground

AWEKAS